aviador You're here:

KOLU Decoded Metar

COLUMBUS MUNI in NE, USA
Report Time2018-07-22 23:56:00
UTC Time2018-07-23 00:26:22
Flight Rules vfr VFR
Wind120° at 05 kt
W.Decomp.*RWY 14: 4.4 kt HW 2.3 kt LCW
RWY 20: 0.2 kt HW 5 kt LCW
W.Rank120° ranks 27
Current wind is below 120° avg. (6.6)
Visibility9999 m
Phenomena:N/A
Clouds:N/A
Expected CloudBase > 3,200 ft AGL from Temp-Dew spread
CeilingNone
Temp27°C (ISA +15)
Dew Point19°C (62% RH)
Heat Index28.2°C
QNH1017 hPa
Density Alt3,317 ft
Elevation1,444 ft
Report Wrong Elevation
Raw Report
KOLU 222356Z AUTO 12005KT 10SM CLR 27/19 A3002 RMK AO2 SLP156
T02720194 10283 20256 58007=

Extra information for KOLU:More info

Metar Taf Metar & Taf Last 4 Metars F.Rules Stats Wind Profile Meteogram Temp Stats Airport Information Weather charts Add Link Nearby VenuesMetar ALERT Operation Metar Decoded Social comments

AIRNAV info for KOLU